Semi-Marathon de Paris

Edition 2018

Semi-Marathon de Paris le 4 mars 2018 - Paris 12 - Course à Pied - 21.1 km

Sport : Course à Pied
Date : Sunday 4 mars 2018
Lieu : Paris 12 (75 - Paris, Île-de-France )
Distance : 21.1 kms
Temps limite : 05:00:00

Site Web

Enregistré par Nono92 - validé par eric41

Éditeurs de la catégorie (Course à Pied, Paris, 3/2018) : eric41, bubulle, RayaRun
Devenir éditeur

[phpBB Debug] PHP Notice: in file /home/kikourou/www/calendrier/class/class.fichecourse.php on line 602: include(../include/pub_bannieres.php) [function.include]: failed to open stream: No such file or directory
[phpBB Debug] PHP Notice: in file /home/kikourou/www/calendrier/class/class.fichecourse.php on line 602: include() [function.include]: Failed opening '../include/pub_bannieres.php' for inclusion (include_path='.:/usr/share/php5')

Détails

Départ/arrivée bois de Vincennes. Une boucle.

Site Web de la course : http://www.semideparis.com/
Age minimum : 18
Retrait des dossards : Parc floral de Paris (métro Chateau de Vincennes)
Description du lieu : Esplanade du Chateau de Vincennes (métro Chateau de Vincennes)
Services : Vestiaires.

Attention !!!

Il est recommandé de se renseigner auprès des organisateurs avant de se rendre au départ d'une course. Les erreurs et les changements de dernière minute sont rares, mais cela arrive. Kikouroù décline toute responsabilité en cas d'erreur.

Forum : 1 fil de discussion à propos de la course

43 récits de course

Photos / Vidéos

Il n'y a aucune galerie de photos liée à cette course.

Voir les vidéos liées à cette course :

Carnet d'entrainement

Kikous ayant rentré cette course dans leur carnet :

Avis, notes, impressions

Il n'y a pas d'avis enregistré pour cette course.

Résultats complets

Afficher les 36216 coureurs et ajouter votre résultat perso automatiquement.

Résultat de 76 membres de Kikouroù

  • Chemla jeremie : 01:14:41, 21.1 km (16.95 km/h) (position: 92)
  • MEAR : 01:16:42, 21.100 km (16.5 km/h) (position: 108)
  • padeveau : 01:23:25, 21.100 km (15.17 km/h) (position: 550)
  • JEZYO : 01:23:41, 21.1 km (15.12 km/h) (position: 540)
  • theom : 01:24:44, 21.1 km (14.94 km/h) (position: 827)
  • Raphynisher : 01:25:00, 21.100 km (14.89 km/h) (position: 773)
  • Matt Paris 12 : 01:25:27, 21.100 km (14.81 km/h) (position: 829)
  • UsainBolt54 : 01:27:04, 21.100 km (14.54 km/h) (position: 1097)
  • Gabuzo : 01:27:29, 21.1 km (14.47 km/h) (position: 1232)
  • BOB1993 : 01:28:23, 21.100 km (14.32 km/h) (position: 1319)
  • Niny94 : 01:29:03, 21.100 km (14.21 km/h) (position: 1498)
  • marathon-Yann : 01:29:03, 21.1 km (14.21 km/h) (position: 1613)
  • julvin : 01:29:11, 21.1 km (14.19 km/h) (position: 1658)
  • aann : 01:29:42, 21.100 km (14.11 km/h) (position: 1695)
  • Stain91 : 01:30:43, 21.100 km (13.95 km/h) (position: 1956)
  • oan : 01:30:56, 21.100 km (13.92 km/h) (position: 2011)
  • Romain Demichelis : 01:31:07, 21.1 km (13.89 km/h) (position: -)
  • stef_odeon : 01:31:10, 21.1 km (13.88 km/h) (position: 2204)
  • Glenic : 01:31:18, 21.100 km (13.86 km/h) (position: 2126)
  • Devil78 : 01:31:43, 21.100 km (13.8 km/h) (position: 2243)
  • Olivier Suissa : 01:32:06, 21.1 km (13.74 km/h) (position: -)
  • ilgigrad : 01:32:14, 21.1 km (13.72 km/h) (position: 2516)
  • ClementC95 : 01:32:22, 21.100 km (13.7 km/h) (position: 2439)
  • Thomas Lenoir : 01:32:35, 21.100 km (13.67 km/h) (position: 2498)
  • stepht : 01:33:42, 21.100 km (13.51 km/h) (position: 2930)
  • Bvouard123 : 01:33:54, 21.100 km (13.48 km/h) (position: 3015)
  • GILLES2892 : 01:34:36, 21.100 km (13.38 km/h) (position: 3284)
  • trailaulongcours : 01:35:12, 21.1 km (13.29 km/h) (position: 3442)
  • lolinetteu : 01:36:02, 21.100 km (13.18 km/h) (position: 3869)
  • Tony49 : 01:36:20, 21.100 km (13.14 km/h) (position: 4001)
  • Seb_Duc : 01:36:36, 21.100 km (13.1 km/h) (position: 4101)
  • rpinson : 01:36:57, 21.100 km (13.05 km/h) (position: 4271)
  • Opwind : 01:37:04, 21.100 km (13.04 km/h) (position: 4351)
  • DJE74 : 01:37:16, 21.1 km (13.01 km/h) (position: 4597)
  • jmp06210 : 01:38:10, 21.100 km (12.89 km/h) (position: 4876)
  • Mati : 01:38:15, 21.1 km (12.88 km/h) (position: 5090)
  • Moumoune77 : 01:38:58, 21.100 km (12.79 km/h) (position: 5310)
  • tsimon : 01:39:00, 21.100 km (12.78 km/h) (position: 5317)
  • Thomas BASSEMENT : 01:39:09, 21.100 km (12.76 km/h) (position: 5384)
  • Jerome47400 : 01:39:26, 21.100 km (12.73 km/h) (position: 5541)
  • Lepeltier Hugo : 01:40:42, 21.100 km (12.57 km/h) (position: 6244)
  • Elvlrx : 01:41:45, 21.100 km (12.44 km/h) (position: 6819)
  • petay44 : 01:42:00, 21.1 km (12.41 km/h) (position: -)
  • A7med : 01:42:05, 21.100 km (12.4 km/h) (position: 6987)
  • vincent73 : 01:43:04, 21.1 km (12.28 km/h) (position: 6912)
  • amigo59 : 01:43:30, 21.100 km (12.23 km/h) (position: 7805)
  • jeremiemerer : 01:43:52, 21.1 km (12.18 km/h) (position: -)
  • TmsCbn : 01:45:08, 21.100 km (12.04 km/h) (position: 8907)
  • Thierry Gaumont : 01:47:09, 21.100 km (11.81 km/h) (position: 10230)
  • sergei93 : 01:47:40, 21.100 km (11.75 km/h) (position: 10558)
  • JB_LAMOTTE : 01:48:01, 21.100 km (11.72 km/h) (position: 10755)
  • Flo Nk : 01:49:56, 21.100 km (11.51 km/h) (position: 12139)
  • sept_313 : 01:51:04, 21.100 km (11.39 km/h) (position: 12939)
  • mondolio : 01:52:13, 21.100 km (11.28 km/h) (position: 13808)
  • Thierry92210 : 01:52:20, 21.100 km (11.27 km/h) (position: 13882)
  • Emilien Andrieux : 01:53:40, 21.100 km (11.13 km/h) (position: 14784)
  • clairefourd : 01:55:17, 21.1 km (10.98 km/h) (position: 16196)
  • Katia : 01:57:06, 21.100 km (10.81 km/h) (position: 17339)
  • pe_stphn : 01:57:18, 21.100 km (10.79 km/h) (position: 17521)
  • NIKOLAS_PELLETIER : 01:58:19, 21.100 km (10.7 km/h) (position: 18314)
  • Dav69400 : 01:58:24, 21.100 km (10.69 km/h) (position: 18377)
  • NathanaeI : 01:58:55, 21.100 km (10.64 km/h) (position: 18848)
  • Renfloce : 02:00:21, 21.100 km (10.51 km/h) (position: 19961)
  • tsiryr : 02:01:05, 21.1 km (10.45 km/h) (position: -)
  • Mik75015 : 02:03:36, 21.100 km (10.24 km/h) (position: 22193)
  • lKassandra : 02:04:01, 21.100 km (10.2 km/h) (position: 22476)
  • Anna1402 : 02:06:00, 21.100 km (10.04 km/h) (position: 23823)
  • Twist666 : 02:06:45, 21.100 km (9.98 km/h) (position: 24283)
  • akifdu : 02:08:14, 21.100 km (9.87 km/h) (position: 25223)
  • Poppy78 : 02:08:41, 21.1 km (9.83 km/h) (position: -)
  • Mathieu94 : 02:12:36, 21.100 km (9.54 km/h) (position: 27678)
  • Merignas1 : 02:15:57, 21.100 km (9.31 km/h) (position: 29302)
  • Took : 02:16:56, 21.100 km (9.24 km/h) (position: 29691)
  • Fabiola+ : 02:18:08, 21.100 km (9.16 km/h) (position: 30179)
  • Soulabaille : 02:23:16, 21.100 km (8.83 km/h) (position: 31820)
  • johannick27 : 04:31:24, 21.100 km (4.66 km/h) (position: 32767)
Accueil - Haut de page - Version grand écran